createdAt,value
2023-02-26T00:00:09.827Z,99.90
2023-02-26T00:02:36.696Z,99.90
2023-02-26T00:05:05.222Z,99.90
2023-02-26T00:07:32.147Z,99.90
2023-02-26T00:09:59.076Z,99.90
2023-02-26T00:12:26.223Z,99.90
2023-02-26T00:14:53.362Z,99.90
2023-02-26T00:17:49.105Z,99.90
2023-02-26T00:20:18.940Z,99.90
2023-02-26T00:22:45.945Z,99.90
2023-02-26T00:25:12.781Z,99.90
2023-02-26T00:27:39.941Z,99.90
2023-02-26T00:30:07.968Z,99.90
2023-02-26T00:32:35.704Z,99.90
2023-02-26T00:35:02.919Z,99.90
2023-02-26T00:37:45.984Z,99.90
2023-02-26T00:40:15.925Z,99.90
2023-02-26T00:42:43.717Z,99.90
2023-02-26T00:45:12.113Z,99.90
2023-02-26T00:47:53.959Z,99.90
2023-02-26T00:50:25.417Z,99.90
2023-02-26T00:53:17.374Z,99.90
2023-02-26T00:55:44.072Z,99.90
2023-02-26T00:58:11.223Z,99.90
2023-02-26T01:00:37.881Z,99.90
2023-02-26T01:03:05.046Z,99.90
2023-02-26T01:05:32.025Z,99.90
2023-02-26T01:08:01.615Z,99.90
2023-02-26T01:10:28.877Z,99.90
2023-02-26T01:12:56.935Z,99.90
2023-02-26T01:15:27.090Z,99.90
2023-02-26T01:18:25.422Z,99.90
2023-02-26T01:20:56.545Z,99.90
2023-02-26T01:23:27.057Z,99.90
2023-02-26T01:26:01.886Z,99.90
2023-02-26T01:28:29.158Z,99.90
2023-02-26T01:31:05.215Z,99.90
2023-02-26T01:33:46.751Z,99.90
2023-02-26T01:36:54.486Z,99.90
2023-02-26T01:39:24.065Z,99.90
2023-02-26T01:42:27.387Z,99.90
2023-02-26T01:45:02.496Z,99.90
2023-02-26T01:47:35.200Z,99.90
2023-02-26T01:50:16.936Z,99.90
2023-02-26T01:52:49.818Z,99.90
2023-02-26T01:55:24.336Z,99.90
2023-02-26T01:57:51.626Z,99.90
2023-02-26T02:00:18.934Z,99.90
2023-02-26T02:02:45.825Z,99.90
2023-02-26T02:05:30.246Z,99.90
2023-02-26T02:07:57.825Z,99.90
2023-02-26T02:10:24.546Z,99.90
2023-02-26T02:13:03.441Z,99.90
2023-02-26T02:16:22.550Z,99.90
2023-02-26T02:19:16.688Z,99.90
2023-02-26T02:21:48.825Z,99.90
2023-02-26T02:24:31.653Z,99.90
2023-02-26T02:27:13.276Z,99.90
2023-02-26T02:30:21.513Z,99.90
2023-02-26T02:33:08.635Z,99.90
2023-02-26T02:35:46.343Z,99.90
2023-02-26T02:38:23.894Z,99.90
2023-02-26T02:40:53.064Z,99.90
2023-02-26T02:43:21.386Z,99.90
2023-02-26T02:45:55.934Z,99.90
2023-02-26T02:48:40.805Z,99.90
2023-02-26T02:51:12.418Z,99.90
2023-02-26T02:53:51.751Z,99.90
2023-02-26T02:56:26.781Z,99.90
2023-02-26T02:59:10.709Z,99.90
2023-02-26T03:01:37.884Z,99.90
2023-02-26T03:04:15.339Z,99.90
2023-02-26T03:06:42.371Z,99.90
2023-02-26T03:09:10.139Z,99.90
2023-02-26T03:11:37.254Z,99.90
2023-02-26T03:14:04.228Z,99.90
2023-02-26T03:16:43.429Z,99.90
2023-02-26T03:19:29.879Z,99.90
2023-02-26T03:22:06.318Z,99.90
2023-02-26T03:24:37.055Z,99.90
2023-02-26T03:27:10.804Z,99.90
2023-02-26T03:29:47.421Z,99.90
2023-02-26T03:32:22.078Z,99.90
2023-02-26T03:35:50.986Z,99.90
2023-02-26T03:38:25.629Z,99.90
2023-02-26T03:40:55.537Z,99.90
2023-02-26T03:43:47.362Z,99.90
2023-02-26T03:46:17.699Z,99.90
2023-02-26T03:48:44.592Z,99.90
2023-02-26T03:51:12.524Z,99.90
2023-02-26T03:53:54.502Z,99.90
2023-02-26T03:56:47.721Z,99.90
2023-02-26T03:59:15.381Z,99.90
2023-02-26T04:01:48.943Z,99.90
2023-02-26T04:04:20.570Z,99.90
2023-02-26T04:06:47.294Z,99.90
2023-02-26T04:09:16.090Z,99.90
2023-02-26T04:11:43.300Z,99.90
2023-02-26T04:14:10.001Z,99.90
2023-02-26T04:16:36.809Z,99.90
2023-02-26T04:19:03.620Z,99.90
2023-02-26T04:21:30.962Z,99.90
2023-02-26T04:23:57.690Z,99.90
2023-02-26T04:26:25.161Z,99.90
2023-02-26T04:28:52.194Z,99.90
2023-02-26T04:31:19.097Z,99.90
2023-02-26T04:33:45.973Z,99.90
2023-02-26T04:36:12.737Z,99.90
2023-02-26T04:38:39.812Z,99.90
2023-02-26T04:41:06.911Z,99.90
2023-02-26T04:43:33.734Z,99.90
2023-02-26T04:46:00.858Z,99.90
2023-02-26T04:48:27.895Z,99.90
2023-02-26T04:50:54.635Z,99.90
2023-02-26T04:53:21.950Z,99.90
2023-02-26T04:55:51.383Z,99.90
2023-02-26T04:58:19.012Z,99.90
2023-02-26T05:00:49.561Z,99.90
2023-02-26T05:03:16.466Z,99.90
2023-02-26T05:05:43.821Z,99.90
2023-02-26T05:08:10.687Z,99.90
2023-02-26T05:10:37.413Z,99.90
2023-02-26T05:13:04.231Z,99.90
2023-02-26T05:15:31.096Z,99.90
2023-02-26T05:17:57.927Z,99.90
2023-02-26T05:20:25.198Z,99.90
2023-02-26T05:22:51.998Z,99.90
2023-02-26T05:25:19.057Z,99.90
2023-02-26T05:27:45.751Z,99.90
2023-02-26T05:30:14.716Z,99.90
2023-02-26T05:32:41.762Z,99.90
2023-02-26T05:35:08.768Z,99.90
2023-02-26T05:37:36.671Z,99.90
2023-02-26T05:40:04.816Z,99.90
2023-02-26T05:42:31.890Z,99.90
2023-02-26T05:44:58.692Z,99.90
2023-02-26T05:47:25.691Z,99.90
2023-02-26T05:49:52.431Z,99.90
2023-02-26T05:52:19.171Z,99.90
2023-02-26T05:54:45.965Z,99.90
2023-02-26T05:57:12.693Z,99.90
2023-02-26T05:59:39.496Z,99.90
2023-02-26T06:02:06.323Z,99.90
2023-02-26T06:04:33.230Z,99.90
2023-02-26T06:07:00.102Z,99.90
2023-02-26T06:09:27.372Z,99.90
2023-02-26T06:11:54.440Z,99.90
2023-02-26T06:14:21.117Z,99.90
2023-02-26T06:16:48.457Z,99.90
2023-02-26T06:19:15.233Z,99.90
2023-02-26T06:21:41.959Z,99.90
2023-02-26T06:24:09.239Z,99.90
2023-02-26T06:26:36.082Z,99.90
2023-02-26T06:29:03.046Z,99.90
2023-02-26T06:31:29.884Z,99.90
2023-02-26T06:33:56.760Z,99.90
2023-02-26T06:36:24.662Z,99.90
2023-02-26T06:38:51.721Z,99.90
2023-02-26T06:41:18.497Z,99.90
2023-02-26T06:43:45.828Z,99.90
2023-02-26T06:46:13.158Z,99.90
2023-02-26T06:48:40.014Z,99.90
2023-02-26T06:51:07.627Z,99.90
2023-02-26T06:53:34.885Z,99.90
2023-02-26T06:56:01.676Z,99.90
2023-02-26T06:58:28.873Z,99.90
2023-02-26T07:00:55.744Z,99.90
2023-02-26T07:03:22.513Z,99.90
2023-02-26T07:05:49.732Z,99.90
2023-02-26T07:08:16.613Z,99.90
2023-02-26T07:10:43.744Z,99.90
2023-02-26T07:13:10.537Z,99.90
2023-02-26T07:15:37.472Z,99.90
2023-02-26T07:18:04.521Z,99.90
2023-02-26T07:20:31.392Z,99.90
2023-02-26T07:22:58.623Z,99.90
2023-02-26T07:25:25.412Z,99.90
2023-02-26T07:27:52.311Z,99.90
2023-02-26T07:30:19.824Z,99.90
2023-02-26T07:32:47.124Z,99.90
2023-02-26T07:35:14.054Z,99.90
2023-02-26T07:37:40.861Z,99.90
2023-02-26T07:40:08.123Z,99.90
2023-02-26T07:42:34.918Z,99.90
2023-02-26T07:45:02.360Z,99.90
2023-02-26T07:47:30.525Z,99.90
2023-02-26T07:49:57.989Z,99.90
2023-02-26T07:52:24.765Z,99.90
2023-02-26T07:54:51.587Z,99.90
2023-02-26T07:57:19.040Z,99.90
2023-02-26T07:59:45.832Z,99.90
2023-02-26T08:02:13.186Z,99.90
2023-02-26T08:04:40.090Z,99.90
2023-02-26T08:07:07.444Z,99.90
2023-02-26T08:09:34.698Z,99.90
2023-02-26T08:12:01.967Z,99.90
2023-02-26T08:14:28.707Z,99.90
2023-02-26T08:16:55.601Z,99.90
2023-02-26T08:19:22.741Z,99.90
2023-02-26T08:21:50.795Z,99.90
2023-02-26T08:24:17.893Z,99.90
2023-02-26T08:26:46.205Z,99.90
2023-02-26T08:29:13.393Z,99.90
2023-02-26T08:31:40.320Z,99.90
2023-02-26T08:34:07.136Z,99.90
2023-02-26T08:36:33.928Z,99.90
2023-02-26T08:39:00.753Z,99.90
2023-02-26T08:41:29.859Z,99.90
2023-02-26T08:43:56.608Z,99.90
2023-02-26T08:46:23.553Z,99.90
2023-02-26T08:48:50.502Z,99.90
2023-02-26T08:51:18.893Z,99.90
2023-02-26T08:53:47.339Z,99.90
2023-02-26T08:56:14.113Z,99.90
2023-02-26T08:58:41.187Z,99.90
2023-02-26T09:01:08.590Z,99.90
2023-02-26T09:03:36.094Z,99.90
2023-02-26T09:06:04.623Z,99.90
2023-02-26T09:08:34.955Z,99.90
2023-02-26T09:11:02.785Z,99.90
2023-02-26T09:13:29.745Z,99.90
2023-02-26T09:15:56.696Z,99.90
2023-02-26T09:18:23.668Z,99.90
2023-02-26T09:20:50.415Z,99.90
2023-02-26T09:23:17.152Z,99.90
2023-02-26T09:25:44.281Z,99.90
2023-02-26T09:28:11.080Z,99.90
2023-02-26T09:30:37.892Z,99.90
2023-02-26T09:33:04.985Z,99.90
2023-02-26T09:35:31.715Z,99.90
2023-02-26T09:37:58.469Z,99.90
2023-02-26T09:41:05.362Z,99.90
2023-02-26T09:44:09.991Z,99.90
2023-02-26T09:46:39.764Z,99.90
2023-02-26T09:49:16.680Z,99.90
2023-02-26T09:51:43.586Z,99.90
2023-02-26T09:54:28.413Z,99.90
2023-02-26T09:56:57.023Z,99.90
2023-02-26T09:59:23.922Z,99.90
2023-02-26T10:02:12.789Z,99.90
2023-02-26T10:04:50.388Z,99.90
2023-02-26T10:07:30.052Z,99.90
2023-02-26T10:10:45.574Z,99.90
2023-02-26T10:13:40.520Z,99.90
2023-02-26T10:16:18.106Z,99.90
2023-02-26T10:18:58.116Z,99.90
2023-02-26T10:21:47.751Z,99.90
2023-02-26T10:24:18.260Z,99.90
2023-02-26T10:27:21.220Z,99.90
2023-02-26T10:29:59.460Z,99.90
2023-02-26T10:32:48.898Z,99.90
2023-02-26T10:35:17.292Z,99.90
2023-02-26T10:37:50.306Z,99.90
2023-02-26T10:40:20.775Z,99.90
2023-02-26T10:43:00.016Z,99.90
2023-02-26T10:45:47.851Z,99.90
2023-02-26T10:48:41.682Z,99.90
2023-02-26T10:51:19.468Z,99.90
2023-02-26T10:53:49.310Z,99.90
2023-02-26T10:56:18.207Z,99.90
2023-02-26T10:58:45.007Z,99.90
2023-02-26T11:01:20.125Z,99.90
2023-02-26T11:03:48.820Z,99.90
2023-02-26T11:06:20.614Z,99.90
2023-02-26T11:08:50.648Z,99.90
2023-02-26T11:11:37.077Z,99.90
2023-02-26T11:14:04.045Z,99.70
2023-02-26T11:16:30.843Z,99.70
2023-02-26T11:18:59.552Z,98.50
2023-02-26T11:21:31.236Z,97.00
2023-02-26T11:24:17.513Z,97.20
2023-02-26T11:26:46.682Z,96.80
2023-02-26T11:29:16.880Z,96.50
2023-02-26T11:31:43.983Z,96.60
2023-02-26T11:34:12.136Z,96.70
2023-02-26T11:36:40.799Z,96.30
2023-02-26T11:39:18.309Z,96.30
2023-02-26T11:41:46.970Z,96.10
2023-02-26T11:44:19.349Z,96.60
2023-02-26T11:46:53.856Z,96.50
2023-02-26T11:49:26.001Z,96.80
2023-02-26T11:52:16.839Z,96.90
2023-02-26T11:54:44.941Z,97.40
2023-02-26T11:57:29.490Z,97.30
2023-02-26T11:59:57.906Z,96.90
2023-02-26T12:02:28.057Z,97.30
2023-02-26T12:04:57.557Z,97.20
2023-02-26T12:07:24.274Z,97.20
2023-02-26T12:09:51.006Z,97.30
2023-02-26T12:12:46.365Z,97.50
2023-02-26T12:15:56.857Z,98.20
2023-02-26T12:18:54.168Z,98.20
2023-02-26T12:21:42.097Z,98.70
2023-02-26T12:24:35.614Z,97.90
2023-02-26T12:27:13.700Z,97.50
2023-02-26T12:30:11.090Z,97.90
2023-02-26T12:32:55.807Z,98.80
2023-02-26T12:35:34.974Z,98.90
2023-02-26T12:38:09.669Z,98.60
2023-02-26T12:41:03.182Z,98.50
2023-02-26T12:43:55.351Z,98.90
2023-02-26T12:46:42.597Z,99.90
2023-02-26T12:49:18.274Z,99.90
2023-02-26T12:52:03.933Z,99.90
2023-02-26T12:54:36.428Z,99.90
2023-02-26T12:57:15.653Z,99.90
2023-02-26T12:59:59.019Z,99.90
2023-02-26T13:02:47.663Z,99.90
2023-02-26T13:05:50.522Z,99.90
2023-02-26T13:08:35.649Z,99.90
2023-02-26T13:11:13.292Z,99.90
2023-02-26T13:13:48.966Z,99.90
2023-02-26T13:16:19.121Z,99.90
2023-02-26T13:19:20.617Z,99.90
2023-02-26T13:21:50.294Z,99.90
2023-02-26T13:25:01.499Z,99.90
2023-02-26T13:27:33.007Z,99.90
2023-02-26T13:30:22.770Z,99.90
2023-02-26T13:32:50.861Z,99.90
2023-02-26T13:35:22.483Z,99.90
2023-02-26T13:37:52.422Z,99.90
2023-02-26T13:40:46.500Z,99.90
2023-02-26T13:43:32.894Z,99.90
2023-02-26T13:46:05.965Z,99.90
2023-02-26T13:48:53.200Z,99.90
2023-02-26T13:51:39.079Z,99.90
2023-02-26T13:54:11.720Z,99.90
2023-02-26T13:56:38.393Z,99.90
2023-02-26T13:59:06.068Z,99.90
2023-02-26T14:01:48.467Z,99.90
2023-02-26T14:04:24.325Z,99.90
2023-02-26T14:07:11.884Z,99.90
2023-02-26T14:10:01.814Z,99.90
2023-02-26T14:12:35.345Z,99.90
2023-02-26T14:15:26.916Z,99.90
2023-02-26T14:18:18.958Z,99.90
2023-02-26T14:20:46.560Z,99.90
2023-02-26T14:23:29.712Z,99.90
2023-02-26T14:25:57.444Z,99.90
2023-02-26T14:28:27.854Z,99.90
2023-02-26T14:31:16.307Z,99.90
2023-02-26T14:33:45.492Z,99.90
2023-02-26T14:36:24.919Z,99.90
2023-02-26T14:38:51.790Z,99.90
2023-02-26T14:41:27.384Z,99.90
2023-02-26T14:44:01.340Z,99.90
2023-02-26T14:46:28.307Z,99.90
2023-02-26T14:48:55.502Z,99.90
2023-02-26T14:51:25.833Z,99.90
2023-02-26T14:53:58.594Z,99.90
2023-02-26T14:56:39.251Z,99.90
2023-02-26T14:59:08.918Z,99.90
2023-02-26T15:01:38.623Z,99.90
2023-02-26T15:04:28.014Z,99.90
2023-02-26T15:06:54.676Z,99.90
2023-02-26T15:09:51.722Z,99.90
2023-02-26T15:12:36.008Z,99.90
2023-02-26T15:15:14.607Z,99.90
2023-02-26T15:18:07.815Z,99.90
2023-02-26T15:20:50.275Z,99.90
2023-02-26T15:23:23.846Z,99.90
2023-02-26T15:25:50.593Z,99.90
2023-02-26T15:28:32.479Z,99.90
2023-02-26T15:31:00.168Z,99.90
2023-02-26T15:33:27.145Z,99.90
2023-02-26T15:35:55.373Z,99.90
2023-02-26T15:38:22.262Z,99.90
2023-02-26T15:40:50.527Z,99.90
2023-02-26T15:43:21.087Z,99.90
2023-02-26T15:45:48.124Z,99.90
2023-02-26T15:48:16.803Z,99.90
2023-02-26T15:50:45.304Z,99.90
2023-02-26T15:53:17.847Z,99.90
2023-02-26T15:55:51.866Z,99.90
2023-02-26T15:58:46.004Z,99.90
2023-02-26T16:01:24.475Z,99.90
2023-02-26T16:03:56.702Z,99.90
2023-02-26T16:06:29.634Z,99.60
2023-02-26T16:08:56.337Z,99.90
2023-02-26T16:11:23.164Z,99.90
2023-02-26T16:13:51.181Z,99.90
2023-02-26T16:16:45.399Z,99.90
2023-02-26T16:19:16.681Z,99.90
2023-02-26T16:21:43.409Z,99.90
2023-02-26T16:24:14.759Z,99.90
2023-02-26T16:26:50.986Z,98.80
2023-02-26T16:29:45.952Z,98.50
2023-02-26T16:32:13.497Z,97.90
2023-02-26T16:34:51.351Z,96.80
2023-02-26T16:37:31.275Z,96.90
2023-02-26T16:40:11.114Z,97.80
2023-02-26T16:42:50.196Z,98.60
2023-02-26T16:45:20.192Z,98.80
2023-02-26T16:47:49.612Z,99.10
2023-02-26T16:50:27.135Z,99.40
2023-02-26T16:53:18.341Z,99.60
2023-02-26T16:55:55.797Z,99.90
2023-02-26T16:58:22.994Z,99.90
2023-02-26T17:01:01.744Z,99.90
2023-02-26T17:03:28.526Z,99.90
2023-02-26T17:06:02.689Z,99.90
2023-02-26T17:08:42.515Z,99.90
2023-02-26T17:11:16.694Z,99.90
2023-02-26T17:13:43.524Z,99.90
2023-02-26T17:16:13.066Z,99.90
2023-02-26T17:18:40.295Z,99.90
2023-02-26T17:21:08.082Z,99.90
2023-02-26T17:23:37.199Z,99.90
2023-02-26T17:26:04.351Z,99.90
2023-02-26T17:28:35.533Z,99.90
2023-02-26T17:31:02.634Z,99.90
2023-02-26T17:33:29.526Z,99.90
2023-02-26T17:35:59.405Z,99.90
2023-02-26T17:38:26.177Z,99.90
2023-02-26T17:40:55.520Z,99.90
2023-02-26T17:43:22.749Z,99.90
2023-02-26T17:45:49.500Z,99.90
2023-02-26T17:48:16.913Z,99.90
2023-02-26T17:50:54.508Z,99.90
2023-02-26T17:53:22.538Z,99.90
2023-02-26T17:55:50.406Z,99.90
2023-02-26T17:58:27.263Z,99.90
2023-02-26T18:00:54.093Z,99.90
2023-02-26T18:03:21.045Z,99.90
2023-02-26T18:05:48.444Z,99.90
2023-02-26T18:08:23.278Z,99.90
2023-02-26T18:10:50.778Z,99.90
2023-02-26T18:13:18.121Z,99.90
2023-02-26T18:15:45.450Z,99.90
2023-02-26T18:18:12.756Z,99.90
2023-02-26T18:20:39.583Z,99.90
2023-02-26T18:23:12.672Z,99.90
2023-02-26T18:25:40.212Z,99.90
2023-02-26T18:28:09.838Z,99.90
2023-02-26T18:30:40.367Z,99.90
2023-02-26T18:33:07.521Z,99.90
2023-02-26T18:35:34.275Z,99.90
2023-02-26T18:38:02.604Z,99.90
2023-02-26T18:40:29.472Z,99.90
2023-02-26T18:42:56.865Z,99.90
2023-02-26T18:45:23.629Z,99.90
2023-02-26T18:47:50.419Z,99.90
2023-02-26T18:50:17.563Z,99.90
2023-02-26T18:52:44.407Z,99.90
2023-02-26T18:55:12.151Z,99.90
2023-02-26T18:57:39.593Z,99.90
2023-02-26T19:00:09.020Z,99.90
2023-02-26T19:02:35.910Z,99.90
2023-02-26T19:05:02.848Z,99.90
2023-02-26T19:07:29.842Z,99.90
2023-02-26T19:09:56.493Z,99.90
2023-02-26T19:12:24.377Z,99.90
2023-02-26T19:14:51.111Z,99.90
2023-02-26T19:17:17.902Z,99.90
2023-02-26T19:19:44.679Z,99.90
2023-02-26T19:22:11.710Z,99.90
2023-02-26T19:24:39.833Z,99.90
2023-02-26T19:27:07.812Z,99.90
2023-02-26T19:29:34.660Z,99.90
2023-02-26T19:32:01.640Z,99.90
2023-02-26T19:34:28.523Z,99.90
2023-02-26T19:36:56.235Z,99.90
2023-02-26T19:39:23.053Z,99.90
2023-02-26T19:41:50.721Z,99.90
2023-02-26T19:44:17.565Z,99.90
2023-02-26T19:46:44.509Z,99.90
2023-02-26T19:49:11.449Z,99.90
2023-02-26T19:51:38.674Z,99.90
2023-02-26T19:54:05.670Z,99.90
2023-02-26T19:56:32.662Z,99.90
2023-02-26T19:59:00.025Z,99.90
2023-02-26T20:01:27.820Z,99.90
2023-02-26T20:03:54.850Z,99.90
2023-02-26T20:06:21.646Z,99.90
2023-02-26T20:08:48.835Z,99.90
2023-02-26T20:11:15.686Z,99.90
2023-02-26T20:13:42.548Z,99.90
2023-02-26T20:16:09.933Z,99.90
2023-02-26T20:18:36.789Z,99.90
2023-02-26T20:21:10.057Z,99.90
2023-02-26T20:23:38.274Z,99.90
2023-02-26T20:26:06.655Z,99.90
2023-02-26T20:28:33.946Z,99.90
2023-02-26T20:31:00.778Z,99.90
2023-02-26T20:33:27.926Z,99.90
2023-02-26T20:35:54.723Z,99.90
2023-02-26T20:38:21.684Z,99.90
2023-02-26T20:40:48.993Z,99.90
2023-02-26T20:43:17.138Z,99.90
2023-02-26T20:45:43.905Z,99.90
2023-02-26T20:48:10.695Z,99.90
2023-02-26T20:50:37.652Z,99.90
2023-02-26T20:53:05.159Z,99.90
2023-02-26T20:55:31.962Z,99.90
2023-02-26T20:57:59.134Z,99.90
2023-02-26T21:00:26.073Z,99.90
2023-02-26T21:02:52.798Z,99.90
2023-02-26T21:05:19.655Z,99.90
2023-02-26T21:07:46.401Z,99.90
2023-02-26T21:10:15.365Z,99.90
2023-02-26T21:12:42.615Z,99.90
2023-02-26T21:15:10.404Z,99.90
2023-02-26T21:17:38.300Z,99.90
2023-02-26T21:20:09.007Z,99.90
2023-02-26T21:22:36.518Z,99.90
2023-02-26T21:25:04.218Z,99.90
2023-02-26T21:27:31.376Z,99.90
2023-02-26T21:29:58.203Z,99.90
2023-02-26T21:32:25.164Z,99.90
2023-02-26T21:34:52.515Z,99.90
2023-02-26T21:37:19.687Z,99.90
2023-02-26T21:39:48.140Z,99.90
2023-02-26T21:42:15.015Z,99.90
2023-02-26T21:44:41.698Z,99.90
2023-02-26T21:47:08.460Z,99.90
2023-02-26T21:49:35.198Z,99.90
2023-02-26T21:52:03.538Z,99.90
2023-02-26T21:54:30.646Z,99.90
2023-02-26T21:56:57.912Z,99.90
2023-02-26T21:59:24.806Z,99.90
2023-02-26T22:01:52.214Z,99.90
2023-02-26T22:04:19.166Z,99.90
2023-02-26T22:06:45.916Z,99.90
2023-02-26T22:09:12.735Z,99.90
2023-02-26T22:11:40.037Z,99.90
2023-02-26T22:14:06.827Z,99.90
2023-02-26T22:16:33.778Z,99.90
2023-02-26T22:19:00.530Z,99.90
2023-02-26T22:21:27.575Z,99.90
2023-02-26T22:23:54.460Z,99.90
2023-02-26T22:26:21.311Z,99.90
2023-02-26T22:28:48.012Z,99.90
2023-02-26T22:31:14.893Z,99.90
2023-02-26T22:33:41.759Z,99.90
2023-02-26T22:36:08.851Z,99.90
2023-02-26T22:38:35.552Z,99.90
2023-02-26T22:41:02.273Z,99.90
2023-02-26T22:43:29.043Z,99.90
2023-02-26T22:45:55.749Z,99.90
2023-02-26T22:48:22.490Z,99.90
2023-02-26T22:50:50.308Z,99.90
2023-02-26T22:53:17.051Z,99.90
2023-02-26T22:55:43.887Z,99.90
2023-02-26T22:58:10.726Z,99.90
2023-02-26T23:00:37.915Z,99.90
2023-02-26T23:03:04.645Z,99.90
2023-02-26T23:05:31.355Z,99.90
2023-02-26T23:08:00.772Z,99.90
2023-02-26T23:10:27.747Z,99.90
2023-02-26T23:12:54.539Z,99.90
2023-02-26T23:15:21.278Z,99.90
2023-02-26T23:17:48.059Z,99.90
2023-02-26T23:20:14.950Z,99.90
2023-02-26T23:22:43.685Z,99.90
2023-02-26T23:25:12.058Z,99.90
2023-02-26T23:27:39.017Z,99.90
2023-02-26T23:30:06.259Z,99.90
2023-02-26T23:32:33.102Z,99.90
2023-02-26T23:34:59.786Z,99.90
2023-02-26T23:37:26.502Z,99.90
2023-02-26T23:39:53.170Z,99.90
2023-02-26T23:42:19.862Z,99.90
2023-02-26T23:44:46.656Z,99.90
2023-02-26T23:47:13.938Z,99.90
2023-02-26T23:49:41.257Z,99.90
2023-02-26T23:52:07.985Z,99.90
2023-02-26T23:54:34.883Z,99.90
2023-02-26T23:57:01.559Z,99.90
2023-02-26T23:59:28.319Z,99.90
